aviador You're here:

KGRI Decoded Metar

GRAND ISLAND in NE, USA
Report Time2018-05-21 15:53:00
UTC Time2018-05-21 16:50:25
Flight Rules vfr VFR
WindCalm
Visibility9999 m
Phenomena:N/A
Clouds:N/A
Expected CloudBase > 2,400 ft AGL from Temp-Dew spread
CeilingNone
Temp17°C (ISA +6)
Dew Point11°C (68% RH)
QNH1019 hPa
Density Alt2,487 ft
Elevation1,841 ft
Report Wrong Elevation
Raw Report
KGRI 211553Z 00000KT 10SM CLR 17/11 A3009 RMK AO2 SLP188
T01720111=

Extra information for KGRI:More info

Metar Taf Metar & Taf Last 4 Metars F.Rules Stats Wind Profile Meteogram Temp Stats Airport Information Weather charts Add Link Nearby VenuesMetar ALERT Operation Metar Decoded Social comments

AIRNAV info for KGRI